sensor_id;sensor_type;location;lat;lon;timestamp;temperature;humidity
21682;DHT22;11002;48.256;10.084;2022-08-19T00:01:24;20.90;42.90
21682;DHT22;11002;48.256;10.084;2022-08-19T00:03:52;20.90;43.00
21682;DHT22;11002;48.256;10.084;2022-08-19T00:06:19;20.90;43.00
21682;DHT22;11002;48.256;10.084;2022-08-19T00:08:47;20.90;43.00
21682;DHT22;11002;48.256;10.084;2022-08-19T00:11:14;20.90;43.00
21682;DHT22;11002;48.256;10.084;2022-08-19T00:13:43;20.90;43.00
21682;DHT22;11002;48.256;10.084;2022-08-19T00:16:11;20.90;42.90
21682;DHT22;11002;48.256;10.084;2022-08-19T00:18:39;20.90;43.00
21682;DHT22;11002;48.256;10.084;2022-08-19T00:21:06;20.90;43.00
21682;DHT22;11002;48.256;10.084;2022-08-19T00:23:34;20.90;43.00
21682;DHT22;11002;48.256;10.084;2022-08-19T00:26:03;20.90;43.00
21682;DHT22;11002;48.256;10.084;2022-08-19T00:28:30;20.90;43.70
21682;DHT22;11002;48.256;10.084;2022-08-19T00:30:59;20.90;43.00
21682;DHT22;11002;48.256;10.084;2022-08-19T00:33:27;20.90;43.10
21682;DHT22;11002;48.256;10.084;2022-08-19T00:35:58;20.90;43.10
21682;DHT22;11002;48.256;10.084;2022-08-19T00:38:25;20.90;43.00
21682;DHT22;11002;48.256;10.084;2022-08-19T00:40:54;20.90;43.10
21682;DHT22;11002;48.256;10.084;2022-08-19T00:43:22;20.90;43.10
21682;DHT22;11002;48.256;10.084;2022-08-19T00:45:51;20.90;43.10
21682;DHT22;11002;48.256;10.084;2022-08-19T00:48:21;20.90;43.10
21682;DHT22;11002;48.256;10.084;2022-08-19T00:50:50;20.90;43.10
21682;DHT22;11002;48.256;10.084;2022-08-19T00:53:21;20.90;43.10
21682;DHT22;11002;48.256;10.084;2022-08-19T00:55:53;20.90;43.20
21682;DHT22;11002;48.256;10.084;2022-08-19T00:58:26;20.90;43.10
21682;DHT22;11002;48.256;10.084;2022-08-19T01:00:54;20.90;43.10
21682;DHT22;11002;48.256;10.084;2022-08-19T01:03:23;20.90;43.10
21682;DHT22;11002;48.256;10.084;2022-08-19T01:05:52;20.90;43.10
21682;DHT22;11002;48.256;10.084;2022-08-19T01:08:21;20.90;43.20
21682;DHT22;11002;48.256;10.084;2022-08-19T01:10:51;20.90;43.10
21682;DHT22;11002;48.256;10.084;2022-08-19T01:13:22;20.90;43.20
21682;DHT22;11002;48.256;10.084;2022-08-19T01:15:55;20.90;43.20
21682;DHT22;11002;48.256;10.084;2022-08-19T01:18:25;20.90;43.10
21682;DHT22;11002;48.256;10.084;2022-08-19T01:20:56;20.90;43.10
21682;DHT22;11002;48.256;10.084;2022-08-19T01:23:25;20.90;43.30
21682;DHT22;11002;48.256;10.084;2022-08-19T01:26:10;20.90;43.20
21682;DHT22;11002;48.256;10.084;2022-08-19T01:28:38;20.90;43.10
21682;DHT22;11002;48.256;10.084;2022-08-19T01:31:10;20.90;43.10
21682;DHT22;11002;48.256;10.084;2022-08-19T01:33:39;20.90;43.20
21682;DHT22;11002;48.256;10.084;2022-08-19T01:36:08;20.90;43.20
21682;DHT22;11002;48.256;10.084;2022-08-19T01:38:40;20.90;43.30
21682;DHT22;11002;48.256;10.084;2022-08-19T01:41:09;20.90;43.20
21682;DHT22;11002;48.256;10.084;2022-08-19T01:43:37;20.90;43.20
21682;DHT22;11002;48.256;10.084;2022-08-19T01:46:04;20.90;43.20
21682;DHT22;11002;48.256;10.084;2022-08-19T01:48:37;20.90;43.30
21682;DHT22;11002;48.256;10.084;2022-08-19T01:51:06;20.90;43.20
21682;DHT22;11002;48.256;10.084;2022-08-19T01:53:34;20.90;43.30
21682;DHT22;11002;48.256;10.084;2022-08-19T01:56:04;20.90;43.30
21682;DHT22;11002;48.256;10.084;2022-08-19T01:58:34;20.90;43.30
21682;DHT22;11002;48.256;10.084;2022-08-19T02:01:04;20.90;43.30
21682;DHT22;11002;48.256;10.084;2022-08-19T02:03:32;20.90;43.20
21682;DHT22;11002;48.256;10.084;2022-08-19T02:06:02;20.90;43.30
21682;DHT22;11002;48.256;10.084;2022-08-19T02:08:32;20.90;43.30
21682;DHT22;11002;48.256;10.084;2022-08-19T02:11:00;20.90;43.30
21682;DHT22;11002;48.256;10.084;2022-08-19T02:13:29;20.90;43.30
21682;DHT22;11002;48.256;10.084;2022-08-19T02:15:57;20.90;43.30
21682;DHT22;11002;48.256;10.084;2022-08-19T02:18:24;20.90;43.30
21682;DHT22;11002;48.256;10.084;2022-08-19T02:20:52;20.90;43.30
21682;DHT22;11002;48.256;10.084;2022-08-19T02:23:20;20.90;43.30
21682;DHT22;11002;48.256;10.084;2022-08-19T02:25:48;20.90;43.40
21682;DHT22;11002;48.256;10.084;2022-08-19T02:28:16;20.90;43.30
21682;DHT22;11002;48.256;10.084;2022-08-19T02:30:45;20.90;43.30
21682;DHT22;11002;48.256;10.084;2022-08-19T02:33:12;20.90;43.40
21682;DHT22;11002;48.256;10.084;2022-08-19T02:35:41;20.90;43.40
21682;DHT22;11002;48.256;10.084;2022-08-19T02:38:09;20.90;43.30
21682;DHT22;11002;48.256;10.084;2022-08-19T02:40:52;20.90;43.30
21682;DHT22;11002;48.256;10.084;2022-08-19T02:43:20;20.90;43.30
21682;DHT22;11002;48.256;10.084;2022-08-19T02:45:50;20.90;43.30
21682;DHT22;11002;48.256;10.084;2022-08-19T02:48:19;20.90;43.30
21682;DHT22;11002;48.256;10.084;2022-08-19T02:50:47;20.90;43.30
21682;DHT22;11002;48.256;10.084;2022-08-19T02:53:18;20.90;43.30
21682;DHT22;11002;48.256;10.084;2022-08-19T02:55:48;20.90;43.30
21682;DHT22;11002;48.256;10.084;2022-08-19T02:58:17;20.90;43.30
21682;DHT22;11002;48.256;10.084;2022-08-19T03:00:47;20.90;43.40
21682;DHT22;11002;48.256;10.084;2022-08-19T03:03:17;20.90;43.40
21682;DHT22;11002;48.256;10.084;2022-08-19T03:05:45;20.90;43.40
21682;DHT22;11002;48.256;10.084;2022-08-19T03:08:13;20.90;43.40
21682;DHT22;11002;48.256;10.084;2022-08-19T03:10:42;20.90;43.40
21682;DHT22;11002;48.256;10.084;2022-08-19T03:13:12;20.90;43.40
21682;DHT22;11002;48.256;10.084;2022-08-19T03:15:41;20.90;43.40
21682;DHT22;11002;48.256;10.084;2022-08-19T03:18:09;20.90;43.40
21682;DHT22;11002;48.256;10.084;2022-08-19T03:20:42;20.90;43.40
21682;DHT22;11002;48.256;10.084;2022-08-19T03:23:10;20.90;43.40
21682;DHT22;11002;48.256;10.084;2022-08-19T03:25:39;20.90;43.40
21682;DHT22;11002;48.256;10.084;2022-08-19T03:28:09;20.90;43.40
21682;DHT22;11002;48.256;10.084;2022-08-19T03:30:38;20.90;43.40
21682;DHT22;11002;48.256;10.084;2022-08-19T03:33:07;20.90;43.40
21682;DHT22;11002;48.256;10.084;2022-08-19T03:35:34;20.90;43.50
21682;DHT22;11002;48.256;10.084;2022-08-19T03:38:04;20.90;43.40
21682;DHT22;11002;48.256;10.084;2022-08-19T03:40:32;20.90;43.40
21682;DHT22;11002;48.256;10.084;2022-08-19T03:43:00;20.90;43.50
21682;DHT22;11002;48.256;10.084;2022-08-19T03:45:28;20.90;43.40
21682;DHT22;11002;48.256;10.084;2022-08-19T03:47:55;20.90;43.40
21682;DHT22;11002;48.256;10.084;2022-08-19T03:50:23;20.90;43.40
21682;DHT22;11002;48.256;10.084;2022-08-19T03:52:51;20.90;43.40
21682;DHT22;11002;48.256;10.084;2022-08-19T03:55:20;20.90;43.40
21682;DHT22;11002;48.256;10.084;2022-08-19T03:57:47;20.90;43.50
21682;DHT22;11002;48.256;10.084;2022-08-19T04:00:15;20.90;43.50
21682;DHT22;11002;48.256;10.084;2022-08-19T04:02:43;20.90;43.50
21682;DHT22;11002;48.256;10.084;2022-08-19T04:05:10;20.90;43.50
21682;DHT22;11002;48.256;10.084;2022-08-19T04:07:40;20.90;43.50
21682;DHT22;11002;48.256;10.084;2022-08-19T04:10:08;20.90;43.50
21682;DHT22;11002;48.256;10.084;2022-08-19T04:12:37;20.90;43.50
21682;DHT22;11002;48.256;10.084;2022-08-19T04:15:06;20.90;43.50
21682;DHT22;11002;48.256;10.084;2022-08-19T04:17:34;20.90;43.50
21682;DHT22;11002;48.256;10.084;2022-08-19T04:20:01;20.90;43.60
21682;DHT22;11002;48.256;10.084;2022-08-19T04:22:29;20.90;43.50
21682;DHT22;11002;48.256;10.084;2022-08-19T04:24:56;20.90;43.50
21682;DHT22;11002;48.256;10.084;2022-08-19T04:27:23;20.90;43.50
21682;DHT22;11002;48.256;10.084;2022-08-19T04:29:52;20.90;43.50
21682;DHT22;11002;48.256;10.084;2022-08-19T04:32:21;20.90;43.50
21682;DHT22;11002;48.256;10.084;2022-08-19T04:34:48;20.90;43.50
21682;DHT22;11002;48.256;10.084;2022-08-19T04:37:16;20.90;43.50
21682;DHT22;11002;48.256;10.084;2022-08-19T04:39:43;20.90;43.50
21682;DHT22;11002;48.256;10.084;2022-08-19T04:42:28;20.90;43.50
21682;DHT22;11002;48.256;10.084;2022-08-19T04:45:11;20.90;43.50
21682;DHT22;11002;48.256;10.084;2022-08-19T04:47:41;20.90;43.40
21682;DHT22;11002;48.256;10.084;2022-08-19T04:50:10;20.90;43.50
21682;DHT22;11002;48.256;10.084;2022-08-19T04:52:37;20.90;43.60
21682;DHT22;11002;48.256;10.084;2022-08-19T04:55:09;20.90;43.60
21682;DHT22;11002;48.256;10.084;2022-08-19T04:57:37;20.90;43.60
21682;DHT22;11002;48.256;10.084;2022-08-19T05:00:07;20.90;43.60
21682;DHT22;11002;48.256;10.084;2022-08-19T05:02:36;20.90;43.60
21682;DHT22;11002;48.256;10.084;2022-08-19T05:05:05;20.90;43.60
21682;DHT22;11002;48.256;10.084;2022-08-19T05:07:32;20.90;43.60
21682;DHT22;11002;48.256;10.084;2022-08-19T05:10:00;20.80;43.60
21682;DHT22;11002;48.256;10.084;2022-08-19T05:12:27;20.90;43.70
21682;DHT22;11002;48.256;10.084;2022-08-19T05:14:55;20.90;43.70
21682;DHT22;11002;48.256;10.084;2022-08-19T05:17:23;20.90;43.70
21682;DHT22;11002;48.256;10.084;2022-08-19T05:19:52;20.90;43.70
21682;DHT22;11002;48.256;10.084;2022-08-19T05:22:37;20.90;43.60
21682;DHT22;11002;48.256;10.084;2022-08-19T05:25:07;20.90;43.60
21682;DHT22;11002;48.256;10.084;2022-08-19T05:27:36;20.90;43.60
21682;DHT22;11002;48.256;10.084;2022-08-19T05:30:04;20.90;43.70
21682;DHT22;11002;48.256;10.084;2022-08-19T05:32:32;20.90;43.60
21682;DHT22;11002;48.256;10.084;2022-08-19T05:35:01;20.90;43.70
21682;DHT22;11002;48.256;10.084;2022-08-19T05:37:28;20.90;43.70
21682;DHT22;11002;48.256;10.084;2022-08-19T05:39:56;20.90;43.70
21682;DHT22;11002;48.256;10.084;2022-08-19T05:42:23;20.90;43.70
21682;DHT22;11002;48.256;10.084;2022-08-19T05:44:51;20.90;43.70
21682;DHT22;11002;48.256;10.084;2022-08-19T05:47:18;20.80;43.60
21682;DHT22;11002;48.256;10.084;2022-08-19T05:49:46;20.90;43.70
21682;DHT22;11002;48.256;10.084;2022-08-19T05:52:18;20.90;43.70
21682;DHT22;11002;48.256;10.084;2022-08-19T05:54:46;20.90;43.70
21682;DHT22;11002;48.256;10.084;2022-08-19T05:57:17;20.90;43.80
21682;DHT22;11002;48.256;10.084;2022-08-19T05:59:44;20.90;43.70
21682;DHT22;11002;48.256;10.084;2022-08-19T06:02:17;20.90;43.70
21682;DHT22;11002;48.256;10.084;2022-08-19T06:04:44;20.90;43.70
21682;DHT22;11002;48.256;10.084;2022-08-19T06:07:12;20.90;43.70
21682;DHT22;11002;48.256;10.084;2022-08-19T06:09:41;20.90;43.70
21682;DHT22;11002;48.256;10.084;2022-08-19T06:12:09;20.90;43.70
21682;DHT22;11002;48.256;10.084;2022-08-19T06:14:36;20.90;43.80
21682;DHT22;11002;48.256;10.084;2022-08-19T06:17:04;20.90;43.80
21682;DHT22;11002;48.256;10.084;2022-08-19T06:19:31;20.80;43.70
21682;DHT22;11002;48.256;10.084;2022-08-19T06:22:00;20.90;43.80
21682;DHT22;11002;48.256;10.084;2022-08-19T06:24:29;20.90;43.80
21682;DHT22;11002;48.256;10.084;2022-08-19T06:27:00;20.80;43.80
21682;DHT22;11002;48.256;10.084;2022-08-19T06:29:28;20.80;43.70
21682;DHT22;11002;48.256;10.084;2022-08-19T06:31:58;20.90;44.50
21682;DHT22;11002;48.256;10.084;2022-08-19T06:34:31;20.90;43.80
21682;DHT22;11002;48.256;10.084;2022-08-19T06:37:00;20.90;43.80
21682;DHT22;11002;48.256;10.084;2022-08-19T06:39:30;20.90;43.80
21682;DHT22;11002;48.256;10.084;2022-08-19T06:42:01;20.80;43.70
21682;DHT22;11002;48.256;10.084;2022-08-19T06:44:34;20.90;43.70
21682;DHT22;11002;48.256;10.084;2022-08-19T06:47:04;20.90;43.80
21682;DHT22;11002;48.256;10.084;2022-08-19T06:49:32;20.90;43.80
21682;DHT22;11002;48.256;10.084;2022-08-19T06:52:00;20.90;43.80
21682;DHT22;11002;48.256;10.084;2022-08-19T06:54:28;20.90;43.80
21682;DHT22;11002;48.256;10.084;2022-08-19T06:56:56;20.80;43.80
21682;DHT22;11002;48.256;10.084;2022-08-19T06:59:25;20.90;43.90
21682;DHT22;11002;48.256;10.084;2022-08-19T07:01:56;20.90;43.90
21682;DHT22;11002;48.256;10.084;2022-08-19T07:04:26;20.90;43.90
21682;DHT22;11002;48.256;10.084;2022-08-19T07:06:58;20.90;43.80
21682;DHT22;11002;48.256;10.084;2022-08-19T07:09:26;20.90;43.90
21682;DHT22;11002;48.256;10.084;2022-08-19T07:11:54;20.80;43.90
21682;DHT22;11002;48.256;10.084;2022-08-19T07:14:25;20.90;44.00
21682;DHT22;11002;48.256;10.084;2022-08-19T07:16:54;20.90;44.00
21682;DHT22;11002;48.256;10.084;2022-08-19T07:19:23;20.90;44.00
21682;DHT22;11002;48.256;10.084;2022-08-19T07:21:52;20.90;44.00
21682;DHT22;11002;48.256;10.084;2022-08-19T07:24:20;20.90;44.00
21682;DHT22;11002;48.256;10.084;2022-08-19T07:26:50;20.90;44.00
21682;DHT22;11002;48.256;10.084;2022-08-19T07:29:20;20.90;44.00
21682;DHT22;11002;48.256;10.084;2022-08-19T07:31:50;20.90;44.00
21682;DHT22;11002;48.256;10.084;2022-08-19T07:34:18;20.90;44.00
21682;DHT22;11002;48.256;10.084;2022-08-19T07:36:46;20.90;44.00
21682;DHT22;11002;48.256;10.084;2022-08-19T07:39:16;20.90;44.00
21682;DHT22;11002;48.256;10.084;2022-08-19T07:41:45;20.90;44.10
21682;DHT22;11002;48.256;10.084;2022-08-19T07:44:13;20.90;44.10
21682;DHT22;11002;48.256;10.084;2022-08-19T07:46:42;20.90;44.10
21682;DHT22;11002;48.256;10.084;2022-08-19T07:49:13;20.90;44.10
21682;DHT22;11002;48.256;10.084;2022-08-19T07:51:44;20.90;44.10
21682;DHT22;11002;48.256;10.084;2022-08-19T07:54:12;20.90;44.20
21682;DHT22;11002;48.256;10.084;2022-08-19T07:56:39;20.90;44.20
21682;DHT22;11002;48.256;10.084;2022-08-19T07:59:07;20.90;44.10
21682;DHT22;11002;48.256;10.084;2022-08-19T08:01:35;20.90;44.10
21682;DHT22;11002;48.256;10.084;2022-08-19T08:04:03;20.90;44.10
21682;DHT22;11002;48.256;10.084;2022-08-19T08:06:49;20.90;44.10
21682;DHT22;11002;48.256;10.084;2022-08-19T08:09:36;20.90;44.10
21682;DHT22;11002;48.256;10.084;2022-08-19T08:12:06;20.90;44.10
21682;DHT22;11002;48.256;10.084;2022-08-19T08:14:38;20.90;44.10
21682;DHT22;11002;48.256;10.084;2022-08-19T08:17:11;20.90;44.10
21682;DHT22;11002;48.256;10.084;2022-08-19T08:19:39;20.90;44.10
21682;DHT22;11002;48.256;10.084;2022-08-19T08:22:10;20.90;44.20
21682;DHT22;11002;48.256;10.084;2022-08-19T08:25:02;20.90;44.10
21682;DHT22;11002;48.256;10.084;2022-08-19T08:27:30;20.90;44.10
21682;DHT22;11002;48.256;10.084;2022-08-19T08:29:57;20.90;44.10
21682;DHT22;11002;48.256;10.084;2022-08-19T08:32:25;20.90;44.10
21682;DHT22;11002;48.256;10.084;2022-08-19T08:34:53;20.90;44.20
21682;DHT22;11002;48.256;10.084;2022-08-19T08:37:22;20.90;44.30
21682;DHT22;11002;48.256;10.084;2022-08-19T08:39:49;20.90;44.30
21682;DHT22;11002;48.256;10.084;2022-08-19T08:42:21;20.90;44.40
21682;DHT22;11002;48.256;10.084;2022-08-19T08:44:53;20.90;44.40
21682;DHT22;11002;48.256;10.084;2022-08-19T08:47:26;20.90;44.40
21682;DHT22;11002;48.256;10.084;2022-08-19T08:49:59;20.90;44.40
21682;DHT22;11002;48.256;10.084;2022-08-19T08:52:31;20.90;44.40
21682;DHT22;11002;48.256;10.084;2022-08-19T08:55:05;20.90;44.40
21682;DHT22;11002;48.256;10.084;2022-08-19T08:57:38;20.90;44.40
21682;DHT22;11002;48.256;10.084;2022-08-19T09:00:09;20.90;44.40
21682;DHT22;11002;48.256;10.084;2022-08-19T09:02:37;20.90;44.40
21682;DHT22;11002;48.256;10.084;2022-08-19T09:05:06;20.90;44.40
21682;DHT22;11002;48.256;10.084;2022-08-19T09:07:45;20.90;44.30
21682;DHT22;11002;48.256;10.084;2022-08-19T09:10:19;20.90;44.30
21682;DHT22;11002;48.256;10.084;2022-08-19T09:12:54;20.90;44.30
21682;DHT22;11002;48.256;10.084;2022-08-19T09:15:29;20.90;44.30
21682;DHT22;11002;48.256;10.084;2022-08-19T09:18:00;20.90;44.20
21682;DHT22;11002;48.256;10.084;2022-08-19T09:20:30;20.90;44.30
21682;DHT22;11002;48.256;10.084;2022-08-19T09:22:59;20.90;44.20
21682;DHT22;11002;48.256;10.084;2022-08-19T09:25:27;20.90;44.20
21682;DHT22;11002;48.256;10.084;2022-08-19T09:27:55;20.90;44.20
21682;DHT22;11002;48.256;10.084;2022-08-19T09:30:25;20.90;44.20
21682;DHT22;11002;48.256;10.084;2022-08-19T09:32:54;20.90;44.20
21682;DHT22;11002;48.256;10.084;2022-08-19T09:35:23;20.90;44.10
21682;DHT22;11002;48.256;10.084;2022-08-19T09:37:51;20.90;44.10
21682;DHT22;11002;48.256;10.084;2022-08-19T09:40:20;20.90;44.20
21682;DHT22;11002;48.256;10.084;2022-08-19T09:42:47;20.90;44.10
21682;DHT22;11002;48.256;10.084;2022-08-19T09:45:16;20.90;44.20
21682;DHT22;11002;48.256;10.084;2022-08-19T09:47:44;20.90;44.10
21682;DHT22;11002;48.256;10.084;2022-08-19T09:50:12;20.90;44.10
21682;DHT22;11002;48.256;10.084;2022-08-19T09:52:39;20.90;44.10
21682;DHT22;11002;48.256;10.084;2022-08-19T09:55:11;20.90;44.10
21682;DHT22;11002;48.256;10.084;2022-08-19T09:57:40;20.90;44.20
21682;DHT22;11002;48.256;10.084;2022-08-19T10:00:09;20.90;44.10
21682;DHT22;11002;48.256;10.084;2022-08-19T10:02:36;20.90;44.10
21682;DHT22;11002;48.256;10.084;2022-08-19T10:05:04;20.90;44.10
21682;DHT22;11002;48.256;10.084;2022-08-19T10:07:49;20.90;44.10
21682;DHT22;11002;48.256;10.084;2022-08-19T10:10:17;20.90;44.00
21682;DHT22;11002;48.256;10.084;2022-08-19T10:12:46;20.90;44.10
21682;DHT22;11002;48.256;10.084;2022-08-19T10:15:14;20.90;44.10
21682;DHT22;11002;48.256;10.084;2022-08-19T10:17:42;20.90;44.10
21682;DHT22;11002;48.256;10.084;2022-08-19T10:20:10;20.90;44.10
21682;DHT22;11002;48.256;10.084;2022-08-19T10:22:38;20.90;44.10
21682;DHT22;11002;48.256;10.084;2022-08-19T10:25:07;20.90;44.10
21682;DHT22;11002;48.256;10.084;2022-08-19T10:27:34;20.90;44.00
21682;DHT22;11002;48.256;10.084;2022-08-19T10:30:05;20.90;44.00
21682;DHT22;11002;48.256;10.084;2022-08-19T10:32:32;20.90;44.50
21682;DHT22;11002;48.256;10.084;2022-08-19T10:35:04;20.90;44.20
21682;DHT22;11002;48.256;10.084;2022-08-19T10:37:34;20.90;44.40
21682;DHT22;11002;48.256;10.084;2022-08-19T10:40:04;20.90;44.60
21682;DHT22;11002;48.256;10.084;2022-08-19T10:42:33;20.90;44.60
21682;DHT22;11002;48.256;10.084;2022-08-19T10:45:01;20.90;44.60
21682;DHT22;11002;48.256;10.084;2022-08-19T10:47:30;20.90;44.60
21682;DHT22;11002;48.256;10.084;2022-08-19T10:49:58;20.90;44.60
21682;DHT22;11002;48.256;10.084;2022-08-19T10:52:43;20.90;44.70
21682;DHT22;11002;48.256;10.084;2022-08-19T10:55:11;20.90;44.70
21682;DHT22;11002;48.256;10.084;2022-08-19T10:57:55;20.90;44.60
21682;DHT22;11002;48.256;10.084;2022-08-19T11:00:24;20.90;44.60
21682;DHT22;11002;48.256;10.084;2022-08-19T11:02:55;20.90;44.70
21682;DHT22;11002;48.256;10.084;2022-08-19T11:05:23;20.90;44.80
21682;DHT22;11002;48.256;10.084;2022-08-19T11:07:50;20.90;44.90
21682;DHT22;11002;48.256;10.084;2022-08-19T11:10:18;20.90;45.00
21682;DHT22;11002;48.256;10.084;2022-08-19T11:12:45;20.90;45.10
21682;DHT22;11002;48.256;10.084;2022-08-19T11:15:14;20.90;45.30
21682;DHT22;11002;48.256;10.084;2022-08-19T11:17:41;20.90;45.40
21682;DHT22;11002;48.256;10.084;2022-08-19T11:20:12;20.90;45.40
21682;DHT22;11002;48.256;10.084;2022-08-19T11:22:40;20.90;45.70
21682;DHT22;11002;48.256;10.084;2022-08-19T11:25:09;20.90;45.60
21682;DHT22;11002;48.256;10.084;2022-08-19T11:27:38;21.00;45.70
21682;DHT22;11002;48.256;10.084;2022-08-19T11:30:09;20.90;45.60
21682;DHT22;11002;48.256;10.084;2022-08-19T11:32:37;21.00;45.70
21682;DHT22;11002;48.256;10.084;2022-08-19T11:35:06;21.00;45.70
21682;DHT22;11002;48.256;10.084;2022-08-19T11:37:35;21.00;45.70
21682;DHT22;11002;48.256;10.084;2022-08-19T11:40:05;21.00;45.80
21682;DHT22;11002;48.256;10.084;2022-08-19T11:42:33;21.00;45.70
21682;DHT22;11002;48.256;10.084;2022-08-19T11:45:17;21.00;45.70
21682;DHT22;11002;48.256;10.084;2022-08-19T11:47:45;21.00;45.70
21682;DHT22;11002;48.256;10.084;2022-08-19T11:50:13;21.00;45.60
21682;DHT22;11002;48.256;10.084;2022-08-19T11:52:42;21.00;45.80
21682;DHT22;11002;48.256;10.084;2022-08-19T11:55:10;21.00;45.90
21682;DHT22;11002;48.256;10.084;2022-08-19T11:57:37;21.00;46.10
21682;DHT22;11002;48.256;10.084;2022-08-19T12:00:08;21.00;46.30
21682;DHT22;11002;48.256;10.084;2022-08-19T12:02:37;21.00;46.30
21682;DHT22;11002;48.256;10.084;2022-08-19T12:05:06;21.00;46.40
21682;DHT22;11002;48.256;10.084;2022-08-19T12:07:33;21.00;46.40
21682;DHT22;11002;48.256;10.084;2022-08-19T12:10:03;21.00;46.40
21682;DHT22;11002;48.256;10.084;2022-08-19T12:12:31;21.00;46.40
21682;DHT22;11002;48.256;10.084;2022-08-19T12:14:58;21.00;46.40
21682;DHT22;11002;48.256;10.084;2022-08-19T12:17:26;21.00;46.40
21682;DHT22;11002;48.256;10.084;2022-08-19T12:19:54;21.00;46.40
21682;DHT22;11002;48.256;10.084;2022-08-19T12:22:22;21.00;46.60
21682;DHT22;11002;48.256;10.084;2022-08-19T12:24:49;21.00;46.50
21682;DHT22;11002;48.256;10.084;2022-08-19T12:27:19;21.00;46.60
21682;DHT22;11002;48.256;10.084;2022-08-19T12:29:47;21.10;46.80
21682;DHT22;11002;48.256;10.084;2022-08-19T12:32:17;21.10;46.70
21682;DHT22;11002;48.256;10.084;2022-08-19T12:34:44;21.10;46.70
21682;DHT22;11002;48.256;10.084;2022-08-19T12:37:13;21.10;46.60
21682;DHT22;11002;48.256;10.084;2022-08-19T12:39:41;21.10;46.60
21682;DHT22;11002;48.256;10.084;2022-08-19T12:42:09;21.10;46.50
21682;DHT22;11002;48.256;10.084;2022-08-19T12:44:40;21.10;46.50
21682;DHT22;11002;48.256;10.084;2022-08-19T12:47:09;21.10;46.40
21682;DHT22;11002;48.256;10.084;2022-08-19T12:49:37;21.10;46.40
21682;DHT22;11002;48.256;10.084;2022-08-19T12:52:06;21.10;46.30
21682;DHT22;11002;48.256;10.084;2022-08-19T12:54:34;21.10;46.30
21682;DHT22;11002;48.256;10.084;2022-08-19T12:57:05;21.10;46.20
21682;DHT22;11002;48.256;10.084;2022-08-19T12:59:33;21.10;46.20
21682;DHT22;11002;48.256;10.084;2022-08-19T13:02:03;21.10;46.20
21682;DHT22;11002;48.256;10.084;2022-08-19T13:04:32;21.10;46.20
21682;DHT22;11002;48.256;10.084;2022-08-19T13:07:01;21.10;46.10
21682;DHT22;11002;48.256;10.084;2022-08-19T13:09:28;21.10;46.00
21682;DHT22;11002;48.256;10.084;2022-08-19T13:11:55;21.10;45.90
21682;DHT22;11002;48.256;10.084;2022-08-19T13:14:23;21.10;45.90
21682;DHT22;11002;48.256;10.084;2022-08-19T13:16:50;21.10;45.90
21682;DHT22;11002;48.256;10.084;2022-08-19T13:19:19;21.10;45.90
21682;DHT22;11002;48.256;10.084;2022-08-19T13:21:50;21.10;45.80
21682;DHT22;11002;48.256;10.084;2022-08-19T13:24:17;21.00;45.80
21682;DHT22;11002;48.256;10.084;2022-08-19T13:26:45;21.10;45.80
21682;DHT22;11002;48.256;10.084;2022-08-19T13:29:13;21.10;45.80
21682;DHT22;11002;48.256;10.084;2022-08-19T13:31:58;21.10;45.80
21682;DHT22;11002;48.256;10.084;2022-08-19T13:34:44;21.10;45.70
21682;DHT22;11002;48.256;10.084;2022-08-19T13:37:12;21.00;45.50
21682;DHT22;11002;48.256;10.084;2022-08-19T13:39:40;21.00;45.50
21682;DHT22;11002;48.256;10.084;2022-08-19T13:42:07;21.10;45.60
21682;DHT22;11002;48.256;10.084;2022-08-19T13:44:36;21.00;45.50
21682;DHT22;11002;48.256;10.084;2022-08-19T13:47:05;21.00;45.50
21682;DHT22;11002;48.256;10.084;2022-08-19T13:49:33;21.00;45.50
21682;DHT22;11002;48.256;10.084;2022-08-19T13:52:03;21.00;45.50
21682;DHT22;11002;48.256;10.084;2022-08-19T13:54:31;21.00;45.40
21682;DHT22;11002;48.256;10.084;2022-08-19T13:56:59;21.10;45.50
21682;DHT22;11002;48.256;10.084;2022-08-19T13:59:26;21.00;45.40
21682;DHT22;11002;48.256;10.084;2022-08-19T14:01:57;21.00;45.40
21682;DHT22;11002;48.256;10.084;2022-08-19T14:04:25;21.00;45.40
21682;DHT22;11002;48.256;10.084;2022-08-19T14:06:52;21.00;45.30
21682;DHT22;11002;48.256;10.084;2022-08-19T14:09:22;21.00;45.40
21682;DHT22;11002;48.256;10.084;2022-08-19T14:11:49;21.00;45.30
21682;DHT22;11002;48.256;10.084;2022-08-19T14:14:17;21.00;45.30
21682;DHT22;11002;48.256;10.084;2022-08-19T14:16:44;21.00;45.30
21682;DHT22;11002;48.256;10.084;2022-08-19T14:19:12;21.00;45.20
21682;DHT22;11002;48.256;10.084;2022-08-19T14:21:39;21.00;45.30
21682;DHT22;11002;48.256;10.084;2022-08-19T14:24:07;21.00;45.30
21682;DHT22;11002;48.256;10.084;2022-08-19T14:26:35;21.00;45.20
21682;DHT22;11002;48.256;10.084;2022-08-19T14:29:03;21.00;45.20
21682;DHT22;11002;48.256;10.084;2022-08-19T14:31:30;21.00;45.20
21682;DHT22;11002;48.256;10.084;2022-08-19T14:33:57;21.00;45.20
21682;DHT22;11002;48.256;10.084;2022-08-19T14:36:25;21.00;45.20
21682;DHT22;11002;48.256;10.084;2022-08-19T14:38:52;21.00;45.20
21682;DHT22;11002;48.256;10.084;2022-08-19T14:41:22;21.00;45.20
21682;DHT22;11002;48.256;10.084;2022-08-19T14:43:52;21.00;45.20
21682;DHT22;11002;48.256;10.084;2022-08-19T14:46:21;21.00;45.20
21682;DHT22;11002;48.256;10.084;2022-08-19T14:48:49;21.00;45.10
21682;DHT22;11002;48.256;10.084;2022-08-19T14:51:17;21.00;45.20
21682;DHT22;11002;48.256;10.084;2022-08-19T14:53:45;21.00;45.10
21682;DHT22;11002;48.256;10.084;2022-08-19T14:56:15;21.00;45.10
21682;DHT22;11002;48.256;10.084;2022-08-19T14:58:43;21.00;45.10
21682;DHT22;11002;48.256;10.084;2022-08-19T15:01:13;21.00;45.10
21682;DHT22;11002;48.256;10.084;2022-08-19T15:03:40;21.00;45.10
21682;DHT22;11002;48.256;10.084;2022-08-19T15:06:08;21.00;45.10
21682;DHT22;11002;48.256;10.084;2022-08-19T15:08:37;21.00;45.10
21682;DHT22;11002;48.256;10.084;2022-08-19T15:11:08;21.00;45.10
21682;DHT22;11002;48.256;10.084;2022-08-19T15:13:36;21.00;45.10
21682;DHT22;11002;48.256;10.084;2022-08-19T15:16:04;21.00;45.10
21682;DHT22;11002;48.256;10.084;2022-08-19T15:18:33;21.00;45.10
21682;DHT22;11002;48.256;10.084;2022-08-19T15:21:01;21.00;45.10
21682;DHT22;11002;48.256;10.084;2022-08-19T15:23:28;21.00;45.10
21682;DHT22;11002;48.256;10.084;2022-08-19T15:25:55;21.00;45.10
21682;DHT22;11002;48.256;10.084;2022-08-19T15:28:24;21.00;45.10